Flight Track Log - Related Links

Times and Time Zones

All times are in EDT time to prevent confusion due to time zone crossing. See the AMF1026 flight status page for this flight to view local times or setup timezone preferences in your user account.

Time Position Orientation Groundspeed Altitude Reporting Facility
EDT Latitude Longitude Course Direction KTS MPH feet Rate Location/Type
Tue 09:00:12 PM 42.7319 -73.8081 192° South 130 150 1,000  Level Boston Center
Tue 09:01:00 PM 42.7047 -73.8161 192° South 156 180 2,100 1,266 Climbing Boston Center
Tue 09:02:01 PM 42.7269 -73.8758 297° West 196 226 3,300 1,226 Climbing Boston Center
Tue 09:03:17 PM 42.7531 -73.9472 296° West 197 227 4,900 1,235 Climbing Boston Center
Tue 09:04:17 PM 42.7458 -74.0119 261° West 174 200 6,100 1,182 Climbing Boston Center
Tue 09:05:29 PM 42.7428 -74.0911 267° West 180 207 7,500 1,227 Climbing Boston Center
Tue 09:06:29 PM 42.7417 -74.1647 269° West 180 207 8,800 1,150 Climbing Boston Center
Tue 09:07:29 PM 42.7428 -74.2269 271° West 180 207 9,800 1,038 Climbing Boston Center
Tue 09:08:42 PM 42.7414 -74.3089 269° West 175 201 11,100 992 Climbing Boston Center
Tue 09:09:42 PM 42.7236 -74.3706 249° West 175 201 12,000 454 Climbing Boston Center
Tue 09:10:41 PM 42.6975 -74.4375 242° Southwest 186 214 12,000  Level Boston Center
Tue 09:11:41 PM 42.6733 -74.5128 246° West 220 253 12,000 -50 Level Boston Center
Tue 09:12:41 PM 42.6489 -74.5911 247° West 226 260 11,900  Descending Boston Center
Tue 09:13:41 PM 42.6264 -74.6750 250° West 234 269 12,000 450 Climbing Boston Center
Tue 09:14:41 PM 42.6061 -74.7506 250° West 229 264 12,800 744 Climbing Boston Center
Tue 09:15:42 PM 42.5922 -74.8147 254° West 211 243 13,500 550 Climbing Boston Center
Tue 09:16:41 PM 42.5722 -74.8789 247° West 204 235 13,900 555 Climbing Boston Center
Tue 09:17:41 PM 42.5519 -74.9428 247° West 194 223 14,600 700 Climbing Boston Center
Tue 09:18:41 PM 42.5361 -75.0072 252° West 189 217 15,300 650 Climbing Boston Center
Tue 09:19:41 PM 42.5181 -75.0683 248° West 189 217 15,900 208 Climbing Boston Center
Tue 09:22:03 PM 42.4617 -75.2367 246° West 200 230 16,000 29 Climbing New York Center
Tue 09:23:05 PM 42.4383 -75.3081 246° West 206 237 16,000 49 Level New York Center
Tue 09:24:05 PM 42.4125 -75.3794 244° Southwest 212 244 16,100  Climbing New York Center
Tue 09:25:03 PM 42.3908 -75.4536 248° West 212 244 16,000  Descending New York Center
Tue 09:26:04 PM 42.3653 -75.5219 243° Southwest 212 244 16,100  Climbing New York Center
Tue 09:27:04 PM 42.3417 -75.5903 245° Southwest 212 244 16,000 -50 Descending New York Center
Tue 09:28:05 PM 42.3181 -75.6644 247° West 212 244 16,000  Level New York Center
Tue 09:29:05 PM 42.2922 -75.7353 244° Southwest 212 244 16,000  Level New York Center
Tue 09:30:04 PM 42.2683 -75.8092 246° West 212 244 16,000  Level New York Center
Tue 09:31:05 PM 42.2403 -75.8797 242° Southwest 212 244 16,000  Level New York Center
Tue 09:32:03 PM 42.2161 -75.9564 247° West 217 250 16,000  Level New York Center
Tue 09:33:04 PM 42.1881 -76.0269 242° Southwest 217 250 16,000  Level New York Center
Tue 09:34:04 PM 42.1619 -76.1003 244° Southwest 217 250 16,000  Level New York Center
Tue 09:35:05 PM 42.1378 -76.1739 246° West 217 250 16,000  Level New York Center
Tue 09:36:03 PM 42.1114 -76.2472 244° Southwest 217 250 16,000  Level New York Center
Tue 09:37:03 PM 42.0850 -76.3261 246° West 223 257 16,000  Level New York Center
Tue 09:38:03 PM 42.0583 -76.4019 245° Southwest 223 257 16,000  Level New York Center
Tue 09:39:04 PM 42.0317 -76.4806 245° Southwest 234 269 16,000 -50 Level New York Center
Tue 09:40:04 PM 42.0069 -76.5622 248° West 234 269 15,900  Descending New York Center
Tue 09:41:05 PM 41.9803 -76.6408 245° Southwest 234 269 16,000 50 Climbing New York Center
Tue 09:42:03 PM 41.9533 -76.7222 246° West 234 269 16,000  Level New York Center
Tue 09:43:03 PM 41.9264 -76.8006 245° Southwest 234 269 16,000  Level New York Center
Tue 09:44:04 PM 41.9017 -76.8792 247° West 234 269 16,000  Level New York Center
Tue 09:45:03 PM 41.8744 -76.9603 246° West 234 269 16,000  Level New York Center
Tue 09:46:03 PM 41.8478 -77.0331 244° Southwest 229 264 16,000  Level New York Center
Tue 09:47:04 PM 41.8233 -77.1031 245° Southwest 229 264 16,000  Level New York Center
Tue 09:49:12 PM 41.7706 -77.2700 247° West 234 269 16,000  Level Cleveland Center
Tue 09:50:12 PM 41.7433 -77.3464 244° Southwest 234 269 16,000  Level Cleveland Center
Tue 09:51:12 PM 41.7142 -77.4203 242° Southwest 234 269 16,000  Level Cleveland Center
Tue 09:52:12 PM 41.6811 -77.5053 243° Southwest 234 269 16,000  Level Cleveland Center
Tue 09:53:12 PM 41.6539 -77.5817 245° Southwest 234 269 16,000  Level Cleveland Center
Tue 09:54:12 PM 41.6247 -77.6581 243° Southwest 234 269 16,000  Level Cleveland Center
Tue 09:55:12 PM 41.5972 -77.7342 244° Southwest 234 269 16,000  Level Cleveland Center
Tue 09:56:12 PM 41.5722 -77.8103 246° West 229 264 16,000  Level Cleveland Center
Tue 09:57:12 PM 41.5447 -77.8892 245° Southwest 229 264 16,000  Level Cleveland Center
Tue 09:58:12 PM 41.5172 -77.9625 243° Southwest 229 264 16,000  Level Cleveland Center
Tue 09:59:12 PM 41.4900 -78.0411 245° Southwest 229 264 16,000  Level Cleveland Center
Tue 10:00:12 PM 41.4644 -78.1169 246° West 229 264 16,000  Level Cleveland Center
Tue 10:01:12 PM 41.4389 -78.1928 246° West 229 264 16,000  Level Cleveland Center
Tue 10:02:12 PM 41.4156 -78.2683 248° West 229 264 16,000  Level Cleveland Center
Tue 10:03:12 PM 41.3919 -78.3439 247° West 229 264 16,000  Level Cleveland Center
Tue 10:04:12 PM 41.3747 -78.4192 253° West 229 264 16,000  Level Cleveland Center
Tue 10:05:12 PM 41.3553 -78.5000 252° West 234 269 16,000  Level Cleveland Center
Tue 10:06:12 PM 41.3336 -78.5728 248° West 229 264 16,000  Level Cleveland Center
Tue 10:07:12 PM 41.3142 -78.6533 252° West 229 264 16,000  Level Cleveland Center
Tue 10:08:12 PM 41.2906 -78.7289 247° West 229 264 16,000  Level Cleveland Center
Tue 10:09:12 PM 41.2667 -78.8069 248° West 229 264 16,000  Level Cleveland Center
Tue 10:10:12 PM 41.2408 -78.8822 245° Southwest 229 264 16,000  Level Cleveland Center
Tue 10:11:12 PM 41.2189 -78.9572 249° West 229 264 16,000  Level Cleveland Center
Tue 10:12:12 PM 41.1950 -79.0322 247° West 229 264 16,000  Level Cleveland Center
Tue 10:13:12 PM 41.1667 -79.1158 246° West 229 264 16,000  Level Cleveland Center
Tue 10:14:12 PM 41.1428 -79.1908 247° West 229 264 16,000  Level Cleveland Center
Tue 10:15:12 PM 41.1247 -79.2489 248° West 229 264 16,000  Level Cleveland Center
Tue 10:16:12 PM 41.1111 -79.3347 258° West 229 264 16,000  Level Cleveland Center
Tue 10:17:12 PM 41.1014 -79.4094 260° West 224 258 16,000  Level Cleveland Center
Tue 10:18:12 PM 41.0917 -79.4867 261° West 219 252 16,000  Level Cleveland Center
Tue 10:19:12 PM 41.0653 -79.5669 246° West 219 252 16,000  Level Cleveland Center
Tue 10:20:12 PM 41.0367 -79.6389 242° Southwest 225 259 16,000  Level Cleveland Center
Tue 10:21:12 PM 41.0103 -79.7108 244° Southwest 220 253 16,000  Level Cleveland Center
Tue 10:22:12 PM 40.9858 -79.7828 246° West 220 253 16,000  Level Cleveland Center
Tue 10:23:12 PM 40.9592 -79.8544 244° Southwest 220 253 16,000  Level Cleveland Center
Tue 10:24:12 PM 40.9325 -79.9264 244° Southwest 220 253 16,000  Level Cleveland Center
Tue 10:25:12 PM 40.9036 -79.9981 242° Southwest 220 253 16,000  Level Cleveland Center
Tue 10:26:12 PM 40.8750 -80.0725 243° Southwest 220 253 16,000  Level Cleveland Center
Tue 10:27:12 PM 40.8481 -80.1467 244° Southwest 220 253 16,000  Level Cleveland Center
Tue 10:28:12 PM 40.8253 -80.2236 249° West 220 253 16,000  Level Cleveland Center
Tue 10:29:12 PM 40.8089 -80.2922 253° West 220 253 16,000  Level Cleveland Center
Tue 10:30:12 PM 40.7883 -80.3664 250° West 220 253 16,000  Level Cleveland Center
Tue 10:31:12 PM 40.7717 -80.4433 254° West 220 253 16,000  Level Cleveland Center
Tue 10:32:12 PM 40.7489 -80.5147 247° West 220 253 16,000  Level Cleveland Center
Tue 10:33:12 PM 40.7156 -80.5803 236° Southwest 220 253 16,000  Level Cleveland Center
Tue 10:34:12 PM 40.6781 -80.6461 233° Southwest 226 260 16,000  Level Cleveland Center
Tue 10:35:12 PM 40.6383 -80.7089 230° Southwest 226 260 16,000  Level Cleveland Center
Tue 10:36:12 PM 40.6006 -80.7717 232° Southwest 210 242 16,000  Level Cleveland Center
Tue 10:37:12 PM 40.5650 -80.8317 232° Southwest 210 242 16,000  Level Cleveland Center
Tue 10:38:12 PM 40.5294 -80.8944 233° Southwest 215 247 16,000  Level Cleveland Center
Tue 10:39:12 PM 40.4958 -80.9572 235° Southwest 221 254 16,000  Level Cleveland Center
Tue 10:40:12 PM 40.4583 -81.0225 233° Southwest 221 254 16,000  Level Cleveland Center
Tue 10:41:12 PM 40.4225 -81.0822 232° Southwest 221 254 16,000  Level Cleveland Center
Tue 10:43:13 PM 40.3483 -81.2086 232° Southwest 211 243 16,000  Level Indianapolis Center
Tue 10:44:14 PM 40.3103 -81.2675 230° Southwest 211 243 16,000  Level Indianapolis Center
Tue 10:45:15 PM 40.2703 -81.3222 226° Southwest 209 241 16,000  Level Indianapolis Center
Tue 10:46:17 PM 40.2817 -81.3903 282° West 215 247 16,000  Level Indianapolis Center
Tue 10:47:18 PM 40.3161 -81.4536 306° West 211 243 16,000  Level Indianapolis Center
Tue 10:48:20 PM 40.3497 -81.5161 305° West 209 241 16,000  Level Indianapolis Center
Tue 10:49:21 PM 40.3689 -81.5878 289° West 208 239 16,000  Level Indianapolis Center
Tue 10:50:23 PM 40.3867 -81.6597 288° West 206 237 16,000  Level Indianapolis Center
Tue 10:51:24 PM 40.3911 -81.7339 275° West 202 232 16,000  Level Indianapolis Center
Tue 10:52:26 PM 40.3836 -81.8083 262° West 204 235 16,000  Level Indianapolis Center
Tue 10:53:27 PM 40.3661 -81.8786 252° West 203 234 16,000  Level Indianapolis Center
Tue 10:54:28 PM 40.3375 -81.9411 239° Southwest 200 230 16,000  Level Indianapolis Center
Tue 10:55:30 PM 40.3067 -82.0069 238° Southwest 207 238 16,000  Level Indianapolis Center
Tue 10:56:31 PM 40.2778 -82.0728 240° Southwest 208 239 16,000  Level Indianapolis Center
Tue 10:57:32 PM 40.2469 -82.1508 243° Southwest 206 237 16,000  Level Indianapolis Center
Tue 10:58:34 PM 40.2178 -82.2158 240° Southwest 209 241 16,000  Level Indianapolis Center
Tue 10:59:35 PM 40.1869 -82.2808 238° Southwest 212 244 16,000  Level Indianapolis Center
Tue 11:00:36 PM 40.1536 -82.3453 236° Southwest 211 243 16,000  Level Indianapolis Center
Tue 11:01:38 PM 40.1228 -82.4086 238° Southwest 208 239 16,000  Level Indianapolis Center
Tue 11:02:39 PM 40.0903 -82.4733 237° Southwest 211 243 16,000  Level Indianapolis Center
Tue 11:03:41 PM 40.0575 -82.5375 236° Southwest 212 244 16,000  Level Indianapolis Center
Tue 11:04:42 PM 40.0253 -82.6017 237° Southwest 211 243 16,000  Level Indianapolis Center
Tue 11:05:43 PM 39.9928 -82.6667 237° Southwest 213 245 16,000  Level Indianapolis Center
Tue 11:06:45 PM 39.9603 -82.7322 237° Southwest 214 246 16,000  Level Indianapolis Center
Tue 11:07:46 PM 39.9272 -82.7967 236° Southwest 214 246 16,000  Level Indianapolis Center
Tue 11:08:48 PM 39.8953 -82.8628 238° Southwest 214 246 16,000  Level Indianapolis Center
Tue 11:09:49 PM 39.8564 -82.9411 237° Southwest 218 251 16,000  Level Indianapolis Center
Tue 11:10:50 PM 39.8225 -83.0069 236° Southwest 217 250 16,000  Level Indianapolis Center
Tue 11:11:52 PM 39.7892 -83.0753 238° Southwest 221 254 16,000  Level Indianapolis Center
Tue 11:12:53 PM 39.7550 -83.1411 236° Southwest 218 251 16,000  Level Indianapolis Center
Tue 11:13:55 PM 39.7225 -83.2083 238° Southwest 218 251 16,000  Level Indianapolis Center
Tue 11:14:56 PM 39.6897 -83.2744 237° Southwest 216 249 16,000  Level Indianapolis Center
Tue 11:15:57 PM 39.6578 -83.3417 238° Southwest 216 249 16,000 -49 Level Indianapolis Center
Tue 11:16:59 PM 39.6272 -83.4086 239° Southwest 213 245 15,900 -683 Descending Indianapolis Center
Tue 11:18:00 PM 39.5911 -83.4811 237° Southwest 236 272 14,600 -1,073 Descending Indianapolis Center
Tue 11:19:02 PM 39.5517 -83.5594 237° Southwest 255 293 13,700 -829 Descending Indianapolis Center
Tue 11:20:03 PM 39.5169 -83.6378 240° Southwest 249 287 12,900 -829 Descending Indianapolis Center
Tue 11:21:05 PM 39.4808 -83.7200 240° Southwest 258 297 12,000 -878 Descending Indianapolis Center
Tue 11:22:06 PM 39.4431 -83.8039 240° Southwest 266 306 11,100 -492 Descending Indianapolis Center
Tue 11:23:07 PM 39.4056 -83.8858 239° Southwest 264 304 11,000 -49 Descending Indianapolis Center
Tue 11:24:09 PM 39.3706 -83.9633 240° Southwest 250 288 11,000  Level Indianapolis Center
Tue 11:25:10 PM 39.3358 -84.0367 239° Southwest 239 275 11,000  Level Indianapolis Center
Tue 11:26:12 PM 39.3014 -84.1125 240° Southwest 241 277 11,000  Level Indianapolis Center
Tue 11:27:13 PM 39.2475 -84.1664 218° Southwest 250 288 11,000 -492 Level Indianapolis Center
Tue 11:28:14 PM 39.1767 -84.2206 211° Southwest 250 288 10,000 -1,024 Descending Indianapolis Center
Tue 11:29:16 PM 39.1072 -84.2708 209° Southwest 279 321 8,900 -829 Descending Indianapolis Center
Tue 11:30:17 PM 39.0406 -84.3247 212° Southwest 279 321 8,300 -738 Descending Indianapolis Center
Tue 11:31:18 PM 38.9778 -84.3794 214° Southwest 274 315 7,400 -976 Descending Indianapolis Center
Tue 11:32:20 PM 38.9147 -84.4322 213° Southwest 269 310 6,300 -927 Descending Indianapolis Center
Tue 11:33:21 PM 38.8594 -84.4825 215° Southwest 257 296 5,500 -639 Descending Indianapolis Center
Tue 11:34:22 PM 38.8094 -84.5300 217° Southwest 225 259 5,000 -244 Descending Indianapolis Center
Tue 11:35:24 PM 38.7953 -84.5953 254° West 204 235 5,000 -390 Level Indianapolis Center
Tue 11:36:25 PM 38.8247 -84.6403 310° West 188 216 4,200 -836 Descending Indianapolis Center
Tue 11:37:26 PM 38.8756 -84.6631 341° North 196 226 3,300 -541 Descending Indianapolis Center
Tue 11:38:27 PM 38.9269 -84.6881 339° North 196 226 3,100 -197 Descending Indianapolis Center

Login

Don't have an account? Register now (free) for customized features, flight alerts, and more!